createdAt,value
2023-01-13T00:00:17.644Z,0.200
2023-01-13T00:01:21.836Z,0.100
2023-01-13T00:11:16.682Z,0
2023-01-13T00:12:17.076Z,0.100
2023-01-13T00:13:17.080Z,0
2023-01-13T00:14:17.305Z,0.200
2023-01-13T00:15:16.975Z,0.100
2023-01-13T00:18:16.893Z,0
2023-01-13T00:24:16.593Z,0.100
2023-01-13T00:26:16.231Z,0
2023-01-13T00:27:16.405Z,0.100
2023-01-13T00:29:16.576Z,0.200
2023-01-13T00:30:16.588Z,0
2023-01-13T00:34:17.027Z,0.100
2023-01-13T00:35:16.918Z,0
2023-01-13T00:38:16.892Z,0.100
2023-01-13T00:39:16.643Z,0
2023-01-13T00:40:16.850Z,0.200
2023-01-13T00:41:16.538Z,0.100
2023-01-13T00:43:17.152Z,0
2023-01-13T00:44:16.923Z,0.100
2023-01-13T00:45:17.445Z,0
2023-01-13T00:46:16.560Z,0.100
2023-01-13T00:48:16.837Z,0
2023-01-13T00:50:16.826Z,0.100
2023-01-13T00:53:16.998Z,0
2023-01-13T00:54:16.292Z,0.100
2023-01-13T00:55:16.837Z,0
2023-01-13T00:56:18.236Z,0.100
2023-01-13T01:00:17.076Z,0.200
2023-01-13T01:01:19.175Z,0
2023-01-13T01:03:16.548Z,0.200
2023-01-13T01:06:16.246Z,0.100
2023-01-13T01:15:16.844Z,0.200
2023-01-13T01:16:17.051Z,0.100
2023-01-13T01:17:16.604Z,0.200
2023-01-13T01:18:17.376Z,0
2023-01-13T01:19:17.204Z,0.200
2023-01-13T01:21:17.183Z,0.100
2023-01-13T01:22:16.693Z,0.200
2023-01-13T01:23:16.908Z,0.100
2023-01-13T01:24:17.110Z,0.200
2023-01-13T01:28:17.147Z,0.300
2023-01-13T01:30:17.877Z,0.400
2023-01-13T01:31:17.452Z,0.200
2023-01-13T01:32:17.310Z,0.400
2023-01-13T01:33:17.016Z,0.300
2023-01-13T01:34:16.982Z,0.400
2023-01-13T01:35:16.895Z,0.300
2023-01-13T01:38:17.571Z,0.5
2023-01-13T01:39:16.893Z,0.400
2023-01-13T01:40:17.832Z,0.5
2023-01-13T01:41:17.380Z,0.600
2023-01-13T01:42:17.399Z,0.5
2023-01-13T01:43:16.937Z,0.300
2023-01-13T01:44:17.638Z,0.400
2023-01-13T01:45:17.287Z,0.800
2023-01-13T01:46:14.279Z,0.5
2023-01-13T01:49:17.529Z,0.600
2023-01-13T01:51:17.276Z,0.400
2023-01-13T01:52:17.105Z,0.5
2023-01-13T01:53:17.195Z,0.600
2023-01-13T01:55:17.457Z,0.400
2023-01-13T01:56:17.274Z,0.5
2023-01-13T01:58:17.371Z,0.699
2023-01-13T01:59:17.018Z,0.400
2023-01-13T02:00:17.731Z,0.600
2023-01-13T02:02:16.682Z,0.5
2023-01-13T02:03:17.061Z,0.400
2023-01-13T02:04:17.176Z,0.600
2023-01-13T02:05:17.071Z,0.5
2023-01-13T02:06:16.582Z,0.600
2023-01-13T02:07:16.743Z,0.699
2023-01-13T02:08:16.934Z,0.400
2023-01-13T02:12:16.499Z,0.300
2023-01-13T02:13:16.598Z,0.400
2023-01-13T02:14:16.471Z,0.5
2023-01-13T02:15:16.564Z,0.400
2023-01-13T02:17:16.525Z,0.699
2023-01-13T02:18:16.305Z,0.300
2023-01-13T02:19:16.466Z,0.600
2023-01-13T02:20:16.561Z,0.300
2023-01-13T02:21:16.737Z,0.400
2023-01-13T02:24:16.932Z,0.300
2023-01-13T02:25:17.276Z,0.200
2023-01-13T02:26:16.786Z,0.400
2023-01-13T02:27:17.178Z,0.300
2023-01-13T02:28:16.491Z,0.400
2023-01-13T02:30:17.095Z,0.300
2023-01-13T02:31:16.751Z,0.400
2023-01-13T02:32:16.997Z,0.300
2023-01-13T02:33:16.666Z,0.5
2023-01-13T02:34:16.774Z,0.200
2023-01-13T02:35:17.225Z,0.300
2023-01-13T02:38:16.252Z,0.400
2023-01-13T02:39:16.742Z,0.600
2023-01-13T02:40:16.707Z,0.400
2023-01-13T02:42:16.245Z,0.300
2023-01-13T02:43:16.290Z,0.5
2023-01-13T02:44:17.134Z,0.699
2023-01-13T02:45:16.667Z,0.400
2023-01-13T02:46:16.825Z,0.300
2023-01-13T02:47:17.025Z,0.699
2023-01-13T02:48:16.881Z,0.400
2023-01-13T02:51:17.137Z,0.5
2023-01-13T02:54:17.030Z,0.400
2023-01-13T02:55:17.041Z,0.699
2023-01-13T02:56:17.198Z,0.5
2023-01-13T02:57:16.578Z,0.400
2023-01-13T02:59:16.866Z,0.300
2023-01-13T03:00:17.859Z,0.899
2023-01-13T03:01:17.176Z,0.5
2023-01-13T03:02:17.068Z,0.699
2023-01-13T03:03:16.674Z,0.5
2023-01-13T03:09:16.583Z,0.600
2023-01-13T03:10:17.380Z,0.5
2023-01-13T03:11:16.910Z,0.600
2023-01-13T03:12:17.000Z,1
2023-01-13T03:13:16.891Z,0.899
2023-01-13T03:14:16.429Z,0.5
2023-01-13T03:15:16.552Z,0.600
2023-01-13T03:16:16.247Z,0.800
2023-01-13T03:17:16.403Z,0.600
2023-01-13T03:19:16.726Z,0.800
2023-01-13T03:21:16.897Z,1
2023-01-13T03:22:16.617Z,0.800
2023-01-13T03:23:16.940Z,1
2023-01-13T03:27:16.865Z,1.100
2023-01-13T03:30:16.474Z,1.299
2023-01-13T03:31:16.864Z,1.5
2023-01-13T03:32:16.736Z,1.399
2023-01-13T03:33:16.622Z,1.200
2023-01-13T03:35:16.765Z,1.299
2023-01-13T03:37:16.678Z,1.200
2023-01-13T03:38:16.943Z,1
2023-01-13T03:39:16.934Z,1.299
2023-01-13T03:40:16.847Z,1.399
2023-01-13T03:41:16.565Z,1
2023-01-13T03:42:16.716Z,1.200
2023-01-13T03:43:16.626Z,1.399
2023-01-13T03:44:16.420Z,1.299
2023-01-13T03:45:16.995Z,1.100
2023-01-13T03:46:17.030Z,1.399
2023-01-13T03:47:17.283Z,1.299
2023-01-13T03:48:16.630Z,1.399
2023-01-13T03:51:16.643Z,1.600
2023-01-13T03:52:16.547Z,1.399
2023-01-13T03:53:17.107Z,1.700
2023-01-13T03:55:17.344Z,1.299
2023-01-13T03:56:16.632Z,1.600
2023-01-13T03:58:16.648Z,2
2023-01-13T03:59:16.788Z,1.899
2023-01-13T04:00:17.360Z,2.099
2023-01-13T04:01:16.386Z,1.700
2023-01-13T04:02:16.806Z,2
2023-01-13T04:03:16.661Z,1.899
2023-01-13T04:04:16.628Z,2
2023-01-13T04:05:16.891Z,2.200
2023-01-13T04:06:17.112Z,1.899
2023-01-13T04:07:17.294Z,1.799
2023-01-13T04:09:17.608Z,1.899
2023-01-13T04:10:17.676Z,2
2023-01-13T04:11:17.384Z,1.899
2023-01-13T04:13:17.465Z,2.099
2023-01-13T04:14:17.494Z,2
2023-01-13T04:15:17.491Z,1.600
2023-01-13T04:16:17.891Z,1.899
2023-01-13T04:17:17.195Z,2
2023-01-13T04:18:17.620Z,1.700
2023-01-13T04:19:17.649Z,1.799
2023-01-13T04:20:17.264Z,2.099
2023-01-13T04:22:17.130Z,1.899
2023-01-13T04:23:17.469Z,2
2023-01-13T04:24:17.355Z,2.200
2023-01-13T04:25:17.082Z,2.099
2023-01-13T04:27:17.391Z,2
2023-01-13T04:28:17.665Z,2.099
2023-01-13T04:29:17.215Z,2.400
2023-01-13T04:30:17.707Z,2.200
2023-01-13T04:31:17.648Z,2.299
2023-01-13T04:32:17.074Z,2.099
2023-01-13T04:33:17.145Z,2.299
2023-01-13T04:35:17.189Z,2
2023-01-13T04:36:16.600Z,1.799
2023-01-13T04:37:17.188Z,2.599
2023-01-13T04:38:17.440Z,2.400
2023-01-13T04:39:17.164Z,1.799
2023-01-13T04:40:16.852Z,2.200
2023-01-13T04:43:16.371Z,1.899
2023-01-13T04:44:16.478Z,2
2023-01-13T04:45:16.699Z,2.200
2023-01-13T04:46:16.737Z,2.099
2023-01-13T04:47:16.532Z,1.700
2023-01-13T04:48:16.164Z,1.799
2023-01-13T04:50:16.625Z,2.099
2023-01-13T04:51:16.134Z,2
2023-01-13T04:52:16.902Z,1.799
2023-01-13T04:53:16.156Z,2
2023-01-13T04:56:16.923Z,2.299
2023-01-13T04:57:16.718Z,2
2023-01-13T04:58:16.518Z,2.200
2023-01-13T04:59:16.424Z,2.099
2023-01-13T05:01:16.266Z,2
2023-01-13T05:02:16.809Z,1.899
2023-01-13T05:03:16.496Z,2
2023-01-13T05:04:16.367Z,1.899
2023-01-13T05:05:30.865Z,2
2023-01-13T05:06:16.631Z,1.799
2023-01-13T05:07:30.617Z,1.899
2023-01-13T05:08:16.668Z,1.799
2023-01-13T05:09:17.082Z,2
2023-01-13T05:10:16.682Z,1.799
2023-01-13T05:11:17.106Z,1.600
2023-01-13T05:12:16.927Z,2.099
2023-01-13T05:13:16.987Z,1.799
2023-01-13T05:15:16.705Z,1.899
2023-01-13T05:17:17.197Z,1.799
2023-01-13T05:18:16.400Z,2
2023-01-13T05:19:16.798Z,1.799
2023-01-13T05:20:16.724Z,2.299
2023-01-13T05:21:17.046Z,1.899
2023-01-13T05:23:16.719Z,2.200
2023-01-13T05:24:16.670Z,1.799
2023-01-13T05:25:16.979Z,1.700
2023-01-13T05:26:17.026Z,2
2023-01-13T05:27:16.449Z,1.600
2023-01-13T05:28:16.553Z,1.799
2023-01-13T05:30:16.441Z,1.899
2023-01-13T05:31:16.551Z,1.799
2023-01-13T05:32:17.060Z,2
2023-01-13T05:33:16.342Z,2.099
2023-01-13T05:34:16.402Z,1.799
2023-01-13T05:35:17.073Z,1.700
2023-01-13T05:36:17.196Z,1.799
2023-01-13T05:39:16.957Z,1.899
2023-01-13T05:40:17.493Z,1.799
2023-01-13T05:43:17.250Z,1.899
2023-01-13T05:44:17.588Z,1.799
2023-01-13T05:45:17.736Z,2.099
2023-01-13T05:46:17.352Z,1.600
2023-01-13T05:47:17.151Z,1.899
2023-01-13T05:48:17.344Z,1.799
2023-01-13T05:49:17.333Z,2
2023-01-13T05:50:17.606Z,1.700
2023-01-13T05:51:17.447Z,1.899
2023-01-13T05:52:17.626Z,1.799
2023-01-13T05:54:17.138Z,1.700
2023-01-13T05:55:17.730Z,1.799
2023-01-13T05:56:17.677Z,1.700
2023-01-13T05:58:17.131Z,1.799
2023-01-13T06:00:18.522Z,1.899
2023-01-13T06:02:17.555Z,1.600
2023-01-13T06:03:17.582Z,1.899
2023-01-13T06:04:17.309Z,1.799
2023-01-13T06:06:17.146Z,2
2023-01-13T06:07:16.935Z,1.600
2023-01-13T06:09:16.906Z,1.799
2023-01-13T06:11:16.767Z,1.5
2023-01-13T06:12:17.212Z,1.700
2023-01-13T06:13:16.796Z,1.799
2023-01-13T06:16:16.503Z,1.700
2023-01-13T06:17:16.787Z,2.099
2023-01-13T06:18:16.710Z,2
2023-01-13T06:19:16.625Z,1.899
2023-01-13T06:20:16.747Z,1.700
2023-01-13T06:21:17.271Z,1.899
2023-01-13T06:22:16.991Z,1.700
2023-01-13T06:23:17.390Z,1.899
2023-01-13T06:24:17.406Z,1.799
2023-01-13T06:27:17.237Z,1.600
2023-01-13T06:29:17.047Z,1.799
2023-01-13T06:31:17.129Z,2
2023-01-13T06:32:18.290Z,1.700
2023-01-13T06:33:16.721Z,1.899
2023-01-13T06:34:17.066Z,1.600
2023-01-13T06:35:16.836Z,1.700
2023-01-13T06:36:16.816Z,2.099
2023-01-13T06:37:16.672Z,2.200
2023-01-13T06:38:16.858Z,1.899
2023-01-13T06:40:16.625Z,1.700
2023-01-13T06:41:16.479Z,1.799
2023-01-13T06:43:17.159Z,1.899
2023-01-13T06:44:16.821Z,1.600
2023-01-13T06:45:17.543Z,1.899
2023-01-13T06:46:16.782Z,1.799
2023-01-13T06:47:17.673Z,1.700
2023-01-13T06:49:16.799Z,1.799
2023-01-13T06:51:17.093Z,1.899
2023-01-13T06:53:17.173Z,1.600
2023-01-13T06:54:16.787Z,2
2023-01-13T06:55:17.372Z,2.099
2023-01-13T06:56:16.909Z,1.799
2023-01-13T06:57:17.247Z,1.700
2023-01-13T06:58:16.540Z,1.799
2023-01-13T06:59:16.893Z,1.700
2023-01-13T07:00:17.522Z,1.600
2023-01-13T07:01:16.701Z,1.899
2023-01-13T07:02:17.311Z,1.799
2023-01-13T07:03:16.984Z,2.099
2023-01-13T07:05:16.873Z,1.700
2023-01-13T07:06:16.525Z,2
2023-01-13T07:07:16.873Z,1.799
2023-01-13T07:08:16.871Z,2
2023-01-13T07:10:16.287Z,1.899
2023-01-13T07:11:16.466Z,1.799
2023-01-13T07:13:16.889Z,1.899
2023-01-13T07:14:16.423Z,2.200
2023-01-13T07:15:16.750Z,1.899
2023-01-13T07:16:16.989Z,1.799
2023-01-13T07:17:16.917Z,1.600
2023-01-13T07:18:16.983Z,2.099
2023-01-13T07:19:16.322Z,1.899
2023-01-13T07:20:16.695Z,2.099
2023-01-13T07:21:16.953Z,1.899
2023-01-13T07:23:16.936Z,1.799
2023-01-13T07:24:17.241Z,2.099
2023-01-13T07:25:16.701Z,2
2023-01-13T07:26:16.894Z,1.799
2023-01-13T07:27:16.886Z,1.700
2023-01-13T07:28:17.109Z,2
2023-01-13T07:29:16.759Z,1.899
2023-01-13T07:30:17.185Z,1.5
2023-01-13T07:31:16.914Z,1.600
2023-01-13T07:32:16.650Z,1.399
2023-01-13T07:33:17.536Z,1.299
2023-01-13T07:35:17.132Z,1.399
2023-01-13T07:36:17.162Z,1.5
2023-01-13T07:37:16.994Z,1.200
2023-01-13T07:38:16.760Z,1.100
2023-01-13T07:39:17.176Z,1.200
2023-01-13T07:41:16.524Z,1
2023-01-13T07:42:30.831Z,1.200
2023-01-13T07:43:16.873Z,0.899
2023-01-13T07:44:17.964Z,1.100
2023-01-13T07:45:16.989Z,0.899
2023-01-13T07:46:17.116Z,1.100
2023-01-13T07:47:16.948Z,1.200
2023-01-13T07:49:17.101Z,1.399
2023-01-13T07:50:17.288Z,1
2023-01-13T07:51:16.726Z,1.399
2023-01-13T07:52:16.964Z,1.100
2023-01-13T07:53:17.165Z,1.399
2023-01-13T07:55:17.198Z,1.5
2023-01-13T07:57:16.797Z,1.200
2023-01-13T07:58:17.143Z,1.600
2023-01-13T07:59:16.825Z,1.700
2023-01-13T08:00:18.100Z,1.600
2023-01-13T08:01:17.210Z,1.5
2023-01-13T08:02:17.382Z,1.700
2023-01-13T08:04:16.715Z,1.5
2023-01-13T08:05:17.500Z,1.899
2023-01-13T08:06:17.100Z,1.5
2023-01-13T08:07:16.677Z,1.600
2023-01-13T08:09:17.383Z,1.899
2023-01-13T08:10:17.307Z,1.600
2023-01-13T08:11:16.804Z,1.899
2023-01-13T08:12:16.911Z,2.299
2023-01-13T08:13:16.905Z,2.5
2023-01-13T08:14:17.459Z,2.200
2023-01-13T08:15:17.165Z,2.099
2023-01-13T08:16:17.107Z,2
2023-01-13T08:18:17.215Z,2.099
2023-01-13T08:19:16.815Z,2.200
2023-01-13T08:20:17.298Z,2
2023-01-13T08:21:16.904Z,2.400
2023-01-13T08:23:17.016Z,2.599
2023-01-13T08:24:17.309Z,2.700
2023-01-13T08:25:17.689Z,2.5
2023-01-13T08:26:17.229Z,2.400
2023-01-13T08:27:17.046Z,2.599
2023-01-13T08:28:17.321Z,2.700
2023-01-13T08:29:17.059Z,2.599
2023-01-13T08:30:17.148Z,2.5
2023-01-13T08:31:17.141Z,2.799
2023-01-13T08:32:16.661Z,2.599
2023-01-13T08:33:17.015Z,2.799
2023-01-13T08:34:17.280Z,2.700
2023-01-13T08:37:16.955Z,2.799
2023-01-13T08:39:16.456Z,2.799
2023-01-13T08:40:14.269Z,2.599
2023-01-13T08:42:15.193Z,3.099
2023-01-13T08:43:15.190Z,2.599
2023-01-13T08:44:14.898Z,2.5
2023-01-13T08:45:15.581Z,2.799
2023-01-13T08:46:14.976Z,2.599
2023-01-13T08:47:15.352Z,2.700
2023-01-13T08:50:15.369Z,2.900
2023-01-13T08:51:15.233Z,2.400
2023-01-13T08:52:15.629Z,2.5
2023-01-13T08:53:15.913Z,2.599
2023-01-13T08:54:15.020Z,2.5
2023-01-13T08:56:15.303Z,3
2023-01-13T08:57:15.903Z,2.799
2023-01-13T08:58:16.303Z,2.900
2023-01-13T08:59:15.734Z,2.700
2023-01-13T09:00:16.212Z,2.5
2023-01-13T09:01:16.107Z,2.599
2023-01-13T09:02:16.053Z,2.5
2023-01-13T09:03:15.886Z,2.700
2023-01-13T09:04:15.586Z,2.400
2023-01-13T09:05:17.610Z,2.599
2023-01-13T09:06:15.262Z,2.5
2023-01-13T09:07:15.620Z,2.799
2023-01-13T09:08:14.895Z,2.5
2023-01-13T09:09:15.356Z,2.400
2023-01-13T09:10:15.563Z,2.599
2023-01-13T09:11:15.844Z,2.400
2023-01-13T09:12:15.500Z,2.5
2023-01-13T09:13:15.878Z,2.700
2023-01-13T09:14:16.435Z,2.599
2023-01-13T09:15:16.010Z,2.400
2023-01-13T09:17:15.827Z,2.5
2023-01-13T09:18:15.542Z,2.299
2023-01-13T09:21:15.623Z,2.599
2023-01-13T09:22:15.568Z,2.700
2023-01-13T09:23:15.312Z,2.299
2023-01-13T09:24:15.151Z,2.5
2023-01-13T09:25:15.261Z,2.700
2023-01-13T09:26:14.908Z,2.5
2023-01-13T09:27:15.092Z,2.599
2023-01-13T09:28:14.796Z,2.200
2023-01-13T09:29:15.431Z,2.400
2023-01-13T09:30:15.202Z,2.5
2023-01-13T09:31:19.776Z,2.900
2023-01-13T09:32:15.584Z,2.5
2023-01-13T09:33:20.136Z,2.299
2023-01-13T09:34:15.716Z,2.599
2023-01-13T09:35:15.402Z,2.400
2023-01-13T09:36:15.401Z,2.700
2023-01-13T09:37:20.267Z,2.400
2023-01-13T09:38:14.997Z,2.700
2023-01-13T09:39:15.120Z,2.5
2023-01-13T09:41:14.823Z,2.099
2023-01-13T09:42:15.200Z,2.900
2023-01-13T09:43:14.775Z,2.700
2023-01-13T09:44:15.249Z,2.299
2023-01-13T09:45:15.130Z,2.799
2023-01-13T09:46:14.881Z,2.5
2023-01-13T09:47:14.730Z,2.299
2023-01-13T09:48:15.392Z,3
2023-01-13T09:49:23.105Z,2.299
2023-01-13T09:50:15.175Z,2.5
2023-01-13T09:52:14.545Z,2.599
2023-01-13T09:53:15.361Z,2.400
2023-01-13T09:54:14.568Z,2.900
2023-01-13T09:56:14.674Z,2.5
2023-01-13T09:59:15.495Z,2.799
2023-01-13T10:00:15.840Z,2.200
2023-01-13T10:01:15.189Z,2.799
2023-01-13T10:03:15.245Z,2.700
2023-01-13T10:04:15.116Z,2.900
2023-01-13T10:05:14.761Z,2.799
2023-01-13T10:06:15.002Z,2.700
2023-01-13T10:07:14.680Z,2.799
2023-01-13T10:09:15.659Z,2.700
2023-01-13T10:12:15.157Z,2.599
2023-01-13T10:13:15.308Z,2.799
2023-01-13T10:14:15.082Z,2.599
2023-01-13T10:16:15.243Z,3.200
2023-01-13T10:18:14.909Z,3
2023-01-13T10:19:15.208Z,2.5
2023-01-13T10:20:14.952Z,3.099
2023-01-13T10:21:14.976Z,2.599
2023-01-13T10:22:15.186Z,2.700
2023-01-13T10:23:14.652Z,2.900
2023-01-13T10:24:15.793Z,2.400
2023-01-13T10:25:38.355Z,2.799
2023-01-13T10:28:19.189Z,2.5
2023-01-13T10:29:17.241Z,2.599
2023-01-13T10:30:16.292Z,2.799
2023-01-13T10:32:16.252Z,2.599
2023-01-13T10:33:16.566Z,2.799
2023-01-13T10:34:16.168Z,2.900
2023-01-13T10:35:16.989Z,2.700
2023-01-13T10:37:16.477Z,2.900
2023-01-13T10:38:16.646Z,2.599
2023-01-13T10:39:16.682Z,3
2023-01-13T10:40:16.640Z,2.700
2023-01-13T10:41:16.457Z,2.900
2023-01-13T10:42:17.178Z,2.5
2023-01-13T10:43:16.762Z,2.299
2023-01-13T10:44:16.709Z,2.900
2023-01-13T10:45:17.234Z,3
2023-01-13T10:46:16.944Z,2.799
2023-01-13T10:47:17.281Z,2.599
2023-01-13T10:48:16.714Z,2.900
2023-01-13T10:49:17.135Z,3
2023-01-13T10:50:16.798Z,2.599
2023-01-13T10:51:16.786Z,2.799
2023-01-13T10:52:17.384Z,2.900
2023-01-13T10:53:17.001Z,2.799
2023-01-13T10:54:16.996Z,3.099
2023-01-13T10:55:16.802Z,2.900
2023-01-13T10:56:17.118Z,3.099
2023-01-13T10:58:16.587Z,2.799
2023-01-13T10:59:17.104Z,2.900
2023-01-13T11:00:16.841Z,2.700
2023-01-13T11:01:17.017Z,2.799
2023-01-13T11:02:25.203Z,3.200
2023-01-13T11:03:16.658Z,2.599
2023-01-13T11:04:17.027Z,2.700
2023-01-13T11:05:16.938Z,2.799
2023-01-13T11:06:16.922Z,2.700
2023-01-13T11:07:17.263Z,3
2023-01-13T11:08:16.505Z,3.099
2023-01-13T11:09:17.082Z,2.700
2023-01-13T11:10:17.040Z,2.900
2023-01-13T11:11:16.756Z,2.799
2023-01-13T11:12:17.176Z,2.900
2023-01-13T11:13:17.210Z,3
2023-01-13T11:14:17.110Z,2.900
2023-01-13T11:15:17.453Z,2.700
2023-01-13T11:17:17.458Z,3.099
2023-01-13T11:18:16.950Z,2.799
2023-01-13T11:19:17.318Z,3.200
2023-01-13T11:20:17.090Z,2.900
2023-01-13T11:21:17.511Z,2.799
2023-01-13T11:22:17.941Z,2.700
2023-01-13T11:23:17.323Z,2.799
2023-01-13T11:26:16.732Z,2.700
2023-01-13T11:27:16.849Z,3.099
2023-01-13T11:28:16.761Z,3.200
2023-01-13T11:29:16.898Z,2.799
2023-01-13T11:30:16.857Z,3.099
2023-01-13T11:32:16.922Z,3
2023-01-13T11:33:16.520Z,2.900
2023-01-13T11:35:16.780Z,3.299
2023-01-13T11:36:20.183Z,2.900
2023-01-13T11:37:16.766Z,3
2023-01-13T11:38:16.519Z,2.700
2023-01-13T11:39:16.783Z,2.799
2023-01-13T11:40:16.895Z,2.5
2023-01-13T11:41:17.456Z,2.599
2023-01-13T11:42:16.937Z,2.700
2023-01-13T11:43:16.843Z,2.799
2023-01-13T11:46:16.750Z,2.900
2023-01-13T11:47:17.150Z,2.700
2023-01-13T11:48:16.532Z,2.599
2023-01-13T11:49:16.731Z,2.900
2023-01-13T11:50:17.026Z,2.799
2023-01-13T11:51:16.963Z,2.400
2023-01-13T11:52:16.968Z,2.299
2023-01-13T11:54:16.431Z,2.400
2023-01-13T11:55:16.862Z,2.700
2023-01-13T11:56:16.280Z,2.200
2023-01-13T11:57:16.302Z,2.400
2023-01-13T11:58:16.477Z,2
2023-01-13T11:59:16.583Z,2.099
2023-01-13T12:01:17.028Z,2.200
2023-01-13T12:02:21.219Z,2.599
2023-01-13T12:03:16.834Z,2.299
2023-01-13T12:04:16.912Z,2.200
2023-01-13T12:06:16.694Z,2.5
2023-01-13T12:08:17.009Z,2.200
2023-01-13T12:09:17.088Z,2
2023-01-13T12:10:17.020Z,2.200
2023-01-13T12:11:16.649Z,2.299
2023-01-13T12:13:17.046Z,2.200
2023-01-13T12:14:17.122Z,2.599
2023-01-13T12:15:16.765Z,2.700
2023-01-13T12:16:16.617Z,2.5
2023-01-13T12:17:17.351Z,2.599
2023-01-13T12:19:17.091Z,2.900
2023-01-13T12:20:16.697Z,2.799
2023-01-13T12:21:17.286Z,2.200
2023-01-13T12:22:16.562Z,2.099
2023-01-13T12:23:16.772Z,2.599
2023-01-13T12:25:16.526Z,2.299
2023-01-13T12:26:15.865Z,2.200
2023-01-13T12:27:17.260Z,2.299
2023-01-13T12:28:17.061Z,2.700
2023-01-13T12:29:17.351Z,2.799
2023-01-13T12:30:31.882Z,2.900
2023-01-13T12:31:17.583Z,3
2023-01-13T12:32:17.214Z,2.599
2023-01-13T12:37:17.248Z,2.400
2023-01-13T12:38:16.998Z,2.799
2023-01-13T12:40:16.799Z,2.400
2023-01-13T12:41:17.199Z,2.299
2023-01-13T12:42:16.605Z,3
2023-01-13T12:43:16.661Z,2.5
2023-01-13T12:44:16.335Z,2.400
2023-01-13T12:45:18.456Z,2.799
2023-01-13T12:46:16.719Z,2.5
2023-01-13T12:47:17.020Z,2.599
2023-01-13T12:48:16.950Z,2.5
2023-01-13T12:49:17.164Z,2.700
2023-01-13T12:50:16.625Z,2.5
2023-01-13T12:51:18.293Z,2.599
2023-01-13T12:52:16.650Z,3
2023-01-13T12:53:17.021Z,2.599
2023-01-13T12:54:16.877Z,2.400
2023-01-13T12:55:16.997Z,2.5
2023-01-13T12:56:17.061Z,2.700
2023-01-13T12:57:16.938Z,2.299
2023-01-13T12:58:16.975Z,2.700
2023-01-13T12:59:16.620Z,2.799
2023-01-13T13:00:17.589Z,2.599
2023-01-13T13:01:17.182Z,2.5
2023-01-13T13:02:16.670Z,2.700
2023-01-13T13:03:19.374Z,2.5
2023-01-13T13:08:16.512Z,2.700
2023-01-13T13:10:16.546Z,2.400
2023-01-13T13:11:16.659Z,2.200
2023-01-13T13:12:16.547Z,1.899
2023-01-13T13:13:16.599Z,2.5
2023-01-13T13:15:16.549Z,2.099
2023-01-13T13:16:16.489Z,2.299
2023-01-13T13:17:16.823Z,2.5
2023-01-13T13:19:16.708Z,2.299
2023-01-13T13:21:16.819Z,2.400
2023-01-13T13:23:16.763Z,2.5
2023-01-13T13:26:16.739Z,2.400
2023-01-13T13:28:16.292Z,2.099
2023-01-13T13:29:16.544Z,2.299
2023-01-13T13:30:17.579Z,2.200
2023-01-13T13:32:16.667Z,2.599
2023-01-13T13:33:16.719Z,2.299
2023-01-13T13:34:16.711Z,1.799
2023-01-13T13:35:16.877Z,2.400
2023-01-13T13:36:16.621Z,2.299
2023-01-13T13:37:16.830Z,2.099
2023-01-13T13:38:16.794Z,2.200
2023-01-13T13:39:16.823Z,2.400
2023-01-13T13:42:16.512Z,2.099
2023-01-13T13:43:16.510Z,2
2023-01-13T13:44:16.364Z,2.200
2023-01-13T13:45:16.924Z,2.099
2023-01-13T13:47:16.747Z,2.200
2023-01-13T13:48:16.704Z,2.5
2023-01-13T13:49:16.615Z,2.200
2023-01-13T13:51:16.995Z,2.5
2023-01-13T13:52:16.902Z,2.099
2023-01-13T13:53:16.644Z,2.400
2023-01-13T13:54:16.734Z,2.5
2023-01-13T13:56:17.153Z,2.200
2023-01-13T13:57:17.101Z,2.400
2023-01-13T13:58:17.340Z,2.700
2023-01-13T13:59:16.953Z,2.5
2023-01-13T14:00:17.664Z,2.700
2023-01-13T14:01:17.184Z,2.5
2023-01-13T14:02:16.810Z,2.900
2023-01-13T14:03:17.167Z,2.799
2023-01-13T14:05:17.172Z,2.400
2023-01-13T14:06:17.180Z,2.200
2023-01-13T14:07:16.812Z,2.599
2023-01-13T14:08:17.017Z,2.799
2023-01-13T14:09:16.947Z,2.5
2023-01-13T14:10:16.695Z,2.400
2023-01-13T14:11:16.938Z,2.599
2023-01-13T14:12:16.304Z,2.400
2023-01-13T14:13:16.276Z,2.599
2023-01-13T14:14:16.717Z,2.400
2023-01-13T14:15:16.954Z,2.200
2023-01-13T14:16:16.618Z,2.700
2023-01-13T14:17:16.875Z,2.400
2023-01-13T14:18:17.537Z,2.5
2023-01-13T14:20:16.965Z,2.400
2023-01-13T14:21:17.917Z,2.5
2023-01-13T14:22:18.203Z,2.299
2023-01-13T14:23:17.883Z,2.200
2023-01-13T14:24:17.381Z,2.799
2023-01-13T14:25:17.819Z,2.299
2023-01-13T14:26:17.646Z,1.899
2023-01-13T14:27:18.043Z,2.5
2023-01-13T14:29:17.014Z,2.200
2023-01-13T14:30:16.965Z,2.400
2023-01-13T14:31:22.518Z,2.299
2023-01-13T14:32:16.986Z,2.400
2023-01-13T14:35:17.520Z,2.599
2023-01-13T14:36:17.370Z,2.5
2023-01-13T14:38:17.789Z,2.400
2023-01-13T14:39:25.448Z,2.299
2023-01-13T14:41:17.820Z,2.200
2023-01-13T14:43:25.884Z,2.5
2023-01-13T14:45:26.074Z,2.200
2023-01-13T14:46:17.963Z,2.299
2023-01-13T14:47:32.040Z,2.599
2023-01-13T14:48:17.220Z,2.200
2023-01-13T14:49:31.163Z,2.400
2023-01-13T14:50:17.713Z,2.200
2023-01-13T14:52:17.125Z,2.299
2023-01-13T14:53:31.223Z,2.099
2023-01-13T14:54:17.112Z,2.200
2023-01-13T14:56:16.937Z,2.400
2023-01-13T14:57:30.592Z,2.099
2023-01-13T14:58:16.709Z,2.299
2023-01-13T14:59:16.585Z,1.899
2023-01-13T15:00:17.507Z,2.099
2023-01-13T15:01:36.511Z,2.200
2023-01-13T15:02:16.737Z,1.899
2023-01-13T15:03:16.721Z,2.299
2023-01-13T15:04:16.389Z,2
2023-01-13T15:05:16.631Z,2.200
2023-01-13T15:07:16.859Z,2.299
2023-01-13T15:08:17.402Z,2.400
2023-01-13T15:09:17.219Z,2.299
2023-01-13T15:11:16.880Z,2.099
2023-01-13T15:12:17.139Z,2.200
2023-01-13T15:13:38.490Z,2.299
2023-01-13T15:15:17.016Z,2.099
2023-01-13T15:16:16.855Z,2.400
2023-01-13T15:17:16.625Z,2.200
2023-01-13T15:18:16.571Z,2.5
2023-01-13T15:19:16.983Z,2.400
2023-01-13T15:20:16.517Z,2.200
2023-01-13T15:21:16.653Z,2.400
2023-01-13T15:23:16.603Z,2.5
2023-01-13T15:24:17.198Z,2.400
2023-01-13T15:25:16.682Z,2.799
2023-01-13T15:27:16.905Z,2.5
2023-01-13T15:28:17.448Z,2.799
2023-01-13T15:29:17.904Z,2.700
2023-01-13T15:30:16.836Z,2.799
2023-01-13T15:31:17.186Z,2.700
2023-01-13T15:32:17.266Z,3.200
2023-01-13T15:33:17.341Z,2.799
2023-01-13T15:34:18.020Z,2.700
2023-01-13T15:36:17.056Z,2.599
2023-01-13T15:37:17.005Z,2.799
2023-01-13T15:38:16.943Z,2.5
2023-01-13T15:39:17.153Z,2.799
2023-01-13T15:40:17.754Z,2.599
2023-01-13T15:41:16.812Z,2.900
2023-01-13T15:42:17.023Z,3
2023-01-13T15:43:16.815Z,3.200
2023-01-13T15:44:16.941Z,3
2023-01-13T15:45:17.301Z,3.200
2023-01-13T15:46:17.479Z,3.099
2023-01-13T15:48:17.223Z,3.200
2023-01-13T15:49:17.006Z,3.299
2023-01-13T15:51:16.911Z,3
2023-01-13T15:52:17.138Z,2.700
2023-01-13T15:53:18.025Z,2.900
2023-01-13T15:54:17.895Z,3.200
2023-01-13T15:55:18.143Z,3.299
2023-01-13T15:56:18.807Z,3
2023-01-13T15:58:17.894Z,3.099
2023-01-13T15:59:17.832Z,3.400
2023-01-13T16:00:18.629Z,2.799
2023-01-13T16:01:18.013Z,3.099
2023-01-13T16:03:19.103Z,3.599
2023-01-13T16:04:18.497Z,3.200
2023-01-13T16:05:17.669Z,3.099
2023-01-13T16:06:18.057Z,2.900
2023-01-13T16:07:16.744Z,2.700
2023-01-13T16:08:17.905Z,3.299
2023-01-13T16:12:17.854Z,3.200
2023-01-13T16:13:17.527Z,3.299
2023-01-13T16:15:17.384Z,3.099
2023-01-13T16:16:17.772Z,3.299
2023-01-13T16:17:17.005Z,2.900
2023-01-13T16:19:17.535Z,3.400
2023-01-13T16:22:18.015Z,3
2023-01-13T16:24:17.551Z,2.799
2023-01-13T16:25:17.836Z,3.200
2023-01-13T16:26:17.776Z,3.299
2023-01-13T16:28:17.463Z,3.400
2023-01-13T16:29:17.571Z,3.5
2023-01-13T16:30:17.354Z,3.599
2023-01-13T16:31:17.325Z,3.400
2023-01-13T16:32:17.825Z,3.599
2023-01-13T16:33:17.101Z,3.099
2023-01-13T16:35:16.994Z,3.299
2023-01-13T16:36:17.181Z,3.200
2023-01-13T16:37:16.737Z,3.299
2023-01-13T16:38:17.056Z,3.700
2023-01-13T16:39:17.135Z,3.400
2023-01-13T16:40:17.059Z,3.099
2023-01-13T16:41:16.680Z,3.700
2023-01-13T16:43:16.967Z,3.400
2023-01-13T16:44:16.943Z,3.700
2023-01-13T16:45:17.417Z,3.200
2023-01-13T16:46:16.900Z,3.400
2023-01-13T16:47:17.402Z,3.299
2023-01-13T16:48:16.762Z,3.099
2023-01-13T16:49:16.937Z,3.5
2023-01-13T16:50:16.885Z,3.200
2023-01-13T16:52:21.761Z,3.099
2023-01-13T16:53:16.783Z,3.299
2023-01-13T16:55:17.173Z,3.5
2023-01-13T16:56:16.788Z,4.099
2023-01-13T16:57:16.808Z,3.5
2023-01-13T16:58:21.884Z,2.900
2023-01-13T16:59:16.573Z,3
2023-01-13T17:00:17.324Z,2.799
2023-01-13T17:01:17.020Z,3.200
2023-01-13T17:02:21.826Z,3.299